sensor_id;sensor_type;location;lat;lon;timestamp;P1;durP1;ratioP1;P2;durP2;ratioP2
25409;SDS011;13339;50.840;4.346;2023-07-16T00:00:10;12.93;;;3.03;;
25409;SDS011;13339;50.840;4.346;2023-07-16T00:02:37;9.90;;;2.57;;
25409;SDS011;13339;50.840;4.346;2023-07-16T00:05:03;12.90;;;2.73;;
25409;SDS011;13339;50.840;4.346;2023-07-16T00:07:29;7.00;;;2.67;;
25409;SDS011;13339;50.840;4.346;2023-07-16T00:09:55;8.47;;;2.70;;
25409;SDS011;13339;50.840;4.346;2023-07-16T00:12:20;8.90;;;3.17;;
25409;SDS011;13339;50.840;4.346;2023-07-16T00:14:47;7.03;;;2.87;;
25409;SDS011;13339;50.840;4.346;2023-07-16T00:17:12;7.77;;;3.17;;
25409;SDS011;13339;50.840;4.346;2023-07-16T00:19:38;8.50;;;3.30;;
25409;SDS011;13339;50.840;4.346;2023-07-16T00:22:04;10.37;;;2.53;;
25409;SDS011;13339;50.840;4.346;2023-07-16T00:24:29;12.17;;;2.87;;
25409;SDS011;13339;50.840;4.346;2023-07-16T00:26:55;12.93;;;3.03;;
25409;SDS011;13339;50.840;4.346;2023-07-16T00:29:20;9.10;;;2.70;;
25409;SDS011;13339;50.840;4.346;2023-07-16T00:31:46;15.53;;;3.27;;
25409;SDS011;13339;50.840;4.346;2023-07-16T00:34:12;12.23;;;3.00;;
25409;SDS011;13339;50.840;4.346;2023-07-16T00:36:38;9.20;;;2.90;;
25409;SDS011;13339;50.840;4.346;2023-07-16T00:39:03;8.90;;;2.93;;
25409;SDS011;13339;50.840;4.346;2023-07-16T00:41:29;9.93;;;2.50;;
25409;SDS011;13339;50.840;4.346;2023-07-16T00:43:54;7.97;;;3.10;;
25409;SDS011;13339;50.840;4.346;2023-07-16T00:46:20;12.67;;;3.10;;
25409;SDS011;13339;50.840;4.346;2023-07-16T00:48:46;6.87;;;2.90;;
25409;SDS011;13339;50.840;4.346;2023-07-16T00:51:12;11.33;;;3.43;;
25409;SDS011;13339;50.840;4.346;2023-07-16T00:53:40;12.00;;;3.73;;
25409;SDS011;13339;50.840;4.346;2023-07-16T00:56:07;11.37;;;3.57;;
25409;SDS011;13339;50.840;4.346;2023-07-16T00:58:33;12.33;;;2.90;;
25409;SDS011;13339;50.840;4.346;2023-07-16T01:00:59;9.87;;;3.20;;
25409;SDS011;13339;50.840;4.346;2023-07-16T01:03:25;9.63;;;2.80;;
25409;SDS011;13339;50.840;4.346;2023-07-16T01:05:55;12.50;;;3.37;;
25409;SDS011;13339;50.840;4.346;2023-07-16T01:08:36;9.60;;;2.70;;
25409;SDS011;13339;50.840;4.346;2023-07-16T01:11:06;15.77;;;3.40;;
25409;SDS011;13339;50.840;4.346;2023-07-16T01:13:33;6.17;;;2.77;;
25409;SDS011;13339;50.840;4.346;2023-07-16T01:16:00;12.70;;;3.80;;
25409;SDS011;13339;50.840;4.346;2023-07-16T01:18:25;10.10;;;3.10;;
25409;SDS011;13339;50.840;4.346;2023-07-16T01:20:51;12.20;;;3.27;;
25409;SDS011;13339;50.840;4.346;2023-07-16T01:26:13;11.10;;;3.50;;
25409;SDS011;13339;50.840;4.346;2023-07-16T01:31:52;11.53;;;3.60;;
25409;SDS011;13339;50.840;4.346;2023-07-16T01:34:21;9.10;;;3.67;;
25409;SDS011;13339;50.840;4.346;2023-07-16T01:36:49;9.27;;;3.53;;
25409;SDS011;13339;50.840;4.346;2023-07-16T01:39:15;10.17;;;3.53;;
25409;SDS011;13339;50.840;4.346;2023-07-16T01:41:41;10.20;;;3.63;;
25409;SDS011;13339;50.840;4.346;2023-07-16T01:44:06;9.37;;;3.20;;
25409;SDS011;13339;50.840;4.346;2023-07-16T01:46:32;13.03;;;4.33;;
25409;SDS011;13339;50.840;4.346;2023-07-16T01:48:58;11.13;;;4.27;;
25409;SDS011;13339;50.840;4.346;2023-07-16T01:51:24;9.57;;;3.47;;
25409;SDS011;13339;50.840;4.346;2023-07-16T01:53:49;7.57;;;3.40;;
25409;SDS011;13339;50.840;4.346;2023-07-16T01:56:15;12.80;;;3.63;;
25409;SDS011;13339;50.840;4.346;2023-07-16T01:58:40;10.27;;;3.77;;
25409;SDS011;13339;50.840;4.346;2023-07-16T02:01:06;9.60;;;3.57;;
25409;SDS011;13339;50.840;4.346;2023-07-16T02:03:31;12.37;;;3.50;;
25409;SDS011;13339;50.840;4.346;2023-07-16T02:05:57;13.30;;;3.40;;
25409;SDS011;13339;50.840;4.346;2023-07-16T02:08:23;7.60;;;3.23;;
25409;SDS011;13339;50.840;4.346;2023-07-16T02:10:48;11.30;;;3.47;;
25409;SDS011;13339;50.840;4.346;2023-07-16T02:13:14;10.90;;;4.27;;
25409;SDS011;13339;50.840;4.346;2023-07-16T02:15:39;10.90;;;3.53;;
25409;SDS011;13339;50.840;4.346;2023-07-16T02:18:05;13.27;;;3.80;;
25409;SDS011;13339;50.840;4.346;2023-07-16T02:20:31;13.10;;;3.87;;
25409;SDS011;13339;50.840;4.346;2023-07-16T02:22:57;12.77;;;3.80;;
25409;SDS011;13339;50.840;4.346;2023-07-16T02:25:22;7.00;;;3.57;;
25409;SDS011;13339;50.840;4.346;2023-07-16T02:27:48;18.70;;;4.33;;
25409;SDS011;13339;50.840;4.346;2023-07-16T02:30:14;10.67;;;3.83;;
25409;SDS011;13339;50.840;4.346;2023-07-16T02:32:40;8.13;;;4.13;;
25409;SDS011;13339;50.840;4.346;2023-07-16T02:35:06;10.30;;;4.53;;
25409;SDS011;13339;50.840;4.346;2023-07-16T02:37:32;6.93;;;4.10;;
25409;SDS011;13339;50.840;4.346;2023-07-16T02:39:58;11.97;;;4.40;;
25409;SDS011;13339;50.840;4.346;2023-07-16T02:42:24;21.27;;;5.13;;
25409;SDS011;13339;50.840;4.346;2023-07-16T02:44:50;8.97;;;4.67;;
25409;SDS011;13339;50.840;4.346;2023-07-16T02:47:16;14.23;;;5.10;;
25409;SDS011;13339;50.840;4.346;2023-07-16T02:49:41;15.80;;;5.03;;
25409;SDS011;13339;50.840;4.346;2023-07-16T02:52:07;14.67;;;5.77;;
25409;SDS011;13339;50.840;4.346;2023-07-16T02:54:33;11.77;;;5.13;;
25409;SDS011;13339;50.840;4.346;2023-07-16T02:57:00;11.93;;;5.20;;
25409;SDS011;13339;50.840;4.346;2023-07-16T02:59:25;9.70;;;5.20;;
25409;SDS011;13339;50.840;4.346;2023-07-16T03:01:51;12.57;;;5.37;;
25409;SDS011;13339;50.840;4.346;2023-07-16T03:04:17;13.93;;;4.90;;
25409;SDS011;13339;50.840;4.346;2023-07-16T03:06:42;16.17;;;5.90;;
25409;SDS011;13339;50.840;4.346;2023-07-16T03:09:08;13.70;;;5.03;;
25409;SDS011;13339;50.840;4.346;2023-07-16T03:11:34;10.30;;;4.60;;
25409;SDS011;13339;50.840;4.346;2023-07-16T03:13:59;11.23;;;5.23;;
25409;SDS011;13339;50.840;4.346;2023-07-16T03:16:25;11.33;;;4.97;;
25409;SDS011;13339;50.840;4.346;2023-07-16T03:18:50;11.80;;;5.10;;
25409;SDS011;13339;50.840;4.346;2023-07-16T03:21:16;12.07;;;4.80;;
25409;SDS011;13339;50.840;4.346;2023-07-16T03:23:42;13.37;;;4.90;;
25409;SDS011;13339;50.840;4.346;2023-07-16T03:26:07;23.57;;;11.70;;
25409;SDS011;13339;50.840;4.346;2023-07-16T03:28:33;17.63;;;7.70;;
25409;SDS011;13339;50.840;4.346;2023-07-16T03:30:58;24.60;;;15.43;;
25409;SDS011;13339;50.840;4.346;2023-07-16T03:33:24;9.30;;;5.00;;
25409;SDS011;13339;50.840;4.346;2023-07-16T03:35:49;10.30;;;4.60;;
25409;SDS011;13339;50.840;4.346;2023-07-16T03:38:15;23.87;;;5.50;;
25409;SDS011;13339;50.840;4.346;2023-07-16T03:40:46;14.37;;;5.53;;
25409;SDS011;13339;50.840;4.346;2023-07-16T03:43:12;15.10;;;5.07;;
25409;SDS011;13339;50.840;4.346;2023-07-16T03:45:39;22.00;;;5.60;;
25409;SDS011;13339;50.840;4.346;2023-07-16T03:48:04;10.00;;;5.43;;
25409;SDS011;13339;50.840;4.346;2023-07-16T03:50:30;10.80;;;4.83;;
25409;SDS011;13339;50.840;4.346;2023-07-16T03:52:56;16.20;;;5.47;;
25409;SDS011;13339;50.840;4.346;2023-07-16T03:55:21;14.80;;;5.37;;
25409;SDS011;13339;50.840;4.346;2023-07-16T03:57:47;16.47;;;5.40;;
25409;SDS011;13339;50.840;4.346;2023-07-16T04:00:13;17.03;;;5.40;;
25409;SDS011;13339;50.840;4.346;2023-07-16T04:02:38;20.00;;;5.50;;
25409;SDS011;13339;50.840;4.346;2023-07-16T04:05:04;11.60;;;5.40;;
25409;SDS011;13339;50.840;4.346;2023-07-16T04:07:30;17.50;;;6.00;;
25409;SDS011;13339;50.840;4.346;2023-07-16T04:09:56;15.10;;;5.60;;
25409;SDS011;13339;50.840;4.346;2023-07-16T04:12:21;11.13;;;5.40;;
25409;SDS011;13339;50.840;4.346;2023-07-16T04:14:47;15.93;;;5.97;;
25409;SDS011;13339;50.840;4.346;2023-07-16T04:17:13;13.60;;;5.73;;
25409;SDS011;13339;50.840;4.346;2023-07-16T04:19:38;14.83;;;6.10;;
25409;SDS011;13339;50.840;4.346;2023-07-16T04:22:04;10.37;;;5.93;;
25409;SDS011;13339;50.840;4.346;2023-07-16T04:24:30;10.93;;;6.10;;
25409;SDS011;13339;50.840;4.346;2023-07-16T04:26:57;19.37;;;6.17;;
25409;SDS011;13339;50.840;4.346;2023-07-16T04:29:23;14.03;;;5.67;;
25409;SDS011;13339;50.840;4.346;2023-07-16T04:31:49;16.40;;;5.97;;
25409;SDS011;13339;50.840;4.346;2023-07-16T04:34:14;16.87;;;6.43;;
25409;SDS011;13339;50.840;4.346;2023-07-16T04:36:41;13.33;;;5.50;;
25409;SDS011;13339;50.840;4.346;2023-07-16T04:39:08;13.00;;;6.27;;
25409;SDS011;13339;50.840;4.346;2023-07-16T04:41:33;13.30;;;5.97;;
25409;SDS011;13339;50.840;4.346;2023-07-16T04:43:59;14.40;;;5.97;;
25409;SDS011;13339;50.840;4.346;2023-07-16T04:46:25;10.53;;;5.60;;
25409;SDS011;13339;50.840;4.346;2023-07-16T04:48:50;12.60;;;5.87;;
25409;SDS011;13339;50.840;4.346;2023-07-16T04:51:16;16.67;;;6.37;;
25409;SDS011;13339;50.840;4.346;2023-07-16T04:53:41;14.23;;;6.40;;
25409;SDS011;13339;50.840;4.346;2023-07-16T04:56:13;19.17;;;6.83;;
25409;SDS011;13339;50.840;4.346;2023-07-16T04:58:39;15.30;;;6.57;;
25409;SDS011;13339;50.840;4.346;2023-07-16T05:01:05;23.20;;;6.77;;
25409;SDS011;13339;50.840;4.346;2023-07-16T05:03:31;18.57;;;7.03;;
25409;SDS011;13339;50.840;4.346;2023-07-16T05:05:57;15.20;;;7.20;;
25409;SDS011;13339;50.840;4.346;2023-07-16T05:08:23;15.83;;;6.63;;
25409;SDS011;13339;50.840;4.346;2023-07-16T05:10:48;13.83;;;6.50;;
25409;SDS011;13339;50.840;4.346;2023-07-16T05:13:14;13.50;;;7.07;;
25409;SDS011;13339;50.840;4.346;2023-07-16T05:15:40;18.53;;;8.33;;
25409;SDS011;13339;50.840;4.346;2023-07-16T05:18:08;16.53;;;7.20;;
25409;SDS011;13339;50.840;4.346;2023-07-16T05:20:34;11.83;;;6.67;;
25409;SDS011;13339;50.840;4.346;2023-07-16T05:22:59;14.67;;;6.93;;
25409;SDS011;13339;50.840;4.346;2023-07-16T05:25:25;18.40;;;7.70;;
25409;SDS011;13339;50.840;4.346;2023-07-16T05:27:50;17.30;;;7.13;;
25409;SDS011;13339;50.840;4.346;2023-07-16T05:30:16;11.80;;;7.13;;
25409;SDS011;13339;50.840;4.346;2023-07-16T05:32:42;11.77;;;6.77;;
25409;SDS011;13339;50.840;4.346;2023-07-16T05:35:07;13.40;;;6.77;;
25409;SDS011;13339;50.840;4.346;2023-07-16T05:37:33;20.40;;;7.60;;
25409;SDS011;13339;50.840;4.346;2023-07-16T05:39:58;15.00;;;7.73;;
25409;SDS011;13339;50.840;4.346;2023-07-16T05:42:24;15.30;;;6.90;;
25409;SDS011;13339;50.840;4.346;2023-07-16T05:44:50;16.17;;;7.67;;
25409;SDS011;13339;50.840;4.346;2023-07-16T05:47:15;14.37;;;7.23;;
25409;SDS011;13339;50.840;4.346;2023-07-16T05:49:41;16.07;;;7.30;;
25409;SDS011;13339;50.840;4.346;2023-07-16T05:52:07;16.00;;;7.53;;
25409;SDS011;13339;50.840;4.346;2023-07-16T05:54:34;14.13;;;7.77;;
25409;SDS011;13339;50.840;4.346;2023-07-16T05:56:59;20.83;;;7.93;;
25409;SDS011;13339;50.840;4.346;2023-07-16T05:59:25;16.57;;;7.63;;
25409;SDS011;13339;50.840;4.346;2023-07-16T06:01:51;21.53;;;8.57;;
25409;SDS011;13339;50.840;4.346;2023-07-16T06:04:17;13.27;;;7.97;;
25409;SDS011;13339;50.840;4.346;2023-07-16T06:06:42;13.33;;;6.93;;
25409;SDS011;13339;50.840;4.346;2023-07-16T06:09:08;20.20;;;8.10;;
25409;SDS011;13339;50.840;4.346;2023-07-16T06:11:34;18.53;;;7.80;;
25409;SDS011;13339;50.840;4.346;2023-07-16T06:13:59;17.47;;;7.27;;
25409;SDS011;13339;50.840;4.346;2023-07-16T06:16:25;16.03;;;7.60;;
25409;SDS011;13339;50.840;4.346;2023-07-16T06:18:50;18.67;;;7.87;;
25409;SDS011;13339;50.840;4.346;2023-07-16T06:21:16;14.40;;;7.87;;
25409;SDS011;13339;50.840;4.346;2023-07-16T06:23:42;19.20;;;7.73;;
25409;SDS011;13339;50.840;4.346;2023-07-16T06:26:08;16.77;;;7.93;;
25409;SDS011;13339;50.840;4.346;2023-07-16T06:28:34;14.00;;;8.10;;
25409;SDS011;13339;50.840;4.346;2023-07-16T06:30:59;24.07;;;8.57;;
25409;SDS011;13339;50.840;4.346;2023-07-16T06:33:25;23.40;;;8.93;;
25409;SDS011;13339;50.840;4.346;2023-07-16T06:35:52;19.03;;;9.37;;
25409;SDS011;13339;50.840;4.346;2023-07-16T06:38:18;20.27;;;8.47;;
25409;SDS011;13339;50.840;4.346;2023-07-16T06:40:47;18.20;;;8.50;;
25409;SDS011;13339;50.840;4.346;2023-07-16T06:43:13;18.43;;;7.77;;
25409;SDS011;13339;50.840;4.346;2023-07-16T06:45:40;17.80;;;8.47;;
25409;SDS011;13339;50.840;4.346;2023-07-16T06:48:06;17.10;;;7.87;;
25409;SDS011;13339;50.840;4.346;2023-07-16T06:50:34;18.23;;;7.97;;
25409;SDS011;13339;50.840;4.346;2023-07-16T06:53:06;15.67;;;7.93;;
25409;SDS011;13339;50.840;4.346;2023-07-16T06:55:35;17.90;;;8.27;;
25409;SDS011;13339;50.840;4.346;2023-07-16T06:58:03;19.40;;;7.80;;
25409;SDS011;13339;50.840;4.346;2023-07-16T07:00:29;20.93;;;8.60;;
25409;SDS011;13339;50.840;4.346;2023-07-16T07:02:55;20.43;;;8.53;;
25409;SDS011;13339;50.840;4.346;2023-07-16T07:05:21;16.40;;;7.87;;
25409;SDS011;13339;50.840;4.346;2023-07-16T07:07:47;18.23;;;7.87;;
25409;SDS011;13339;50.840;4.346;2023-07-16T07:10:12;17.20;;;8.03;;
25409;SDS011;13339;50.840;4.346;2023-07-16T07:12:38;19.97;;;8.40;;
25409;SDS011;13339;50.840;4.346;2023-07-16T07:15:07;13.80;;;6.90;;
25409;SDS011;13339;50.840;4.346;2023-07-16T07:17:34;18.20;;;8.00;;
25409;SDS011;13339;50.840;4.346;2023-07-16T07:20:02;13.43;;;7.67;;
25409;SDS011;13339;50.840;4.346;2023-07-16T07:22:28;16.47;;;8.10;;
25409;SDS011;13339;50.840;4.346;2023-07-16T07:24:57;16.27;;;7.83;;
25409;SDS011;13339;50.840;4.346;2023-07-16T07:27:23;16.50;;;7.63;;
25409;SDS011;13339;50.840;4.346;2023-07-16T07:29:49;16.70;;;7.80;;
25409;SDS011;13339;50.840;4.346;2023-07-16T07:32:22;19.20;;;8.33;;
25409;SDS011;13339;50.840;4.346;2023-07-16T07:34:48;11.50;;;7.03;;
25409;SDS011;13339;50.840;4.346;2023-07-16T07:37:14;17.77;;;7.93;;
25409;SDS011;13339;50.840;4.346;2023-07-16T07:39:40;16.97;;;8.17;;
25409;SDS011;13339;50.840;4.346;2023-07-16T07:42:05;15.30;;;7.43;;
25409;SDS011;13339;50.840;4.346;2023-07-16T07:44:32;19.77;;;7.50;;
25409;SDS011;13339;50.840;4.346;2023-07-16T07:46:57;17.77;;;7.90;;
25409;SDS011;13339;50.840;4.346;2023-07-16T07:49:23;13.70;;;7.67;;
25409;SDS011;13339;50.840;4.346;2023-07-16T07:51:48;17.10;;;8.33;;
25409;SDS011;13339;50.840;4.346;2023-07-16T07:54:14;19.83;;;7.60;;
25409;SDS011;13339;50.840;4.346;2023-07-16T07:56:41;13.20;;;7.57;;
25409;SDS011;13339;50.840;4.346;2023-07-16T07:59:06;15.83;;;8.00;;
25409;SDS011;13339;50.840;4.346;2023-07-16T08:01:32;17.67;;;7.40;;
25409;SDS011;13339;50.840;4.346;2023-07-16T08:03:58;14.83;;;6.90;;
25409;SDS011;13339;50.840;4.346;2023-07-16T08:06:23;17.73;;;6.83;;
25409;SDS011;13339;50.840;4.346;2023-07-16T08:08:49;17.33;;;7.57;;
25409;SDS011;13339;50.840;4.346;2023-07-16T08:11:15;14.03;;;6.60;;
25409;SDS011;13339;50.840;4.346;2023-07-16T08:13:40;9.23;;;6.13;;
25409;SDS011;13339;50.840;4.346;2023-07-16T08:16:06;13.37;;;7.10;;
25409;SDS011;13339;50.840;4.346;2023-07-16T08:18:31;11.53;;;6.63;;
25409;SDS011;13339;50.840;4.346;2023-07-16T08:20:57;13.05;;;6.63;;
25409;SDS011;13339;50.840;4.346;2023-07-16T08:23:22;13.03;;;6.30;;
25409;SDS011;13339;50.840;4.346;2023-07-16T08:25:48;20.73;;;6.38;;
25409;SDS011;13339;50.840;4.346;2023-07-16T08:28:15;12.47;;;6.40;;
25409;SDS011;13339;50.840;4.346;2023-07-16T08:30:41;11.45;;;6.80;;
25409;SDS011;13339;50.840;4.346;2023-07-16T08:33:06;15.27;;;6.63;;
25409;SDS011;13339;50.840;4.346;2023-07-16T08:35:32;15.73;;;6.30;;
25409;SDS011;13339;50.840;4.346;2023-07-16T08:37:58;17.58;;;6.90;;
25409;SDS011;13339;50.840;4.346;2023-07-16T08:40:23;14.38;;;6.13;;
25409;SDS011;13339;50.840;4.346;2023-07-16T08:42:49;11.43;;;5.60;;
25409;SDS011;13339;50.840;4.346;2023-07-16T08:45:15;11.83;;;5.63;;
25409;SDS011;13339;50.840;4.346;2023-07-16T08:47:42;13.10;;;6.43;;
25409;SDS011;13339;50.840;4.346;2023-07-16T08:50:08;12.13;;;5.97;;
25409;SDS011;13339;50.840;4.346;2023-07-16T08:52:35;12.67;;;6.63;;
25409;SDS011;13339;50.840;4.346;2023-07-16T08:55:01;15.70;;;6.37;;
25409;SDS011;13339;50.840;4.346;2023-07-16T08:57:26;12.67;;;6.40;;
25409;SDS011;13339;50.840;4.346;2023-07-16T08:59:53;13.43;;;5.70;;
25409;SDS011;13339;50.840;4.346;2023-07-16T09:02:21;12.20;;;6.53;;
25409;SDS011;13339;50.840;4.346;2023-07-16T09:04:48;20.13;;;6.37;;
25409;SDS011;13339;50.840;4.346;2023-07-16T09:07:14;10.80;;;5.40;;
25409;SDS011;13339;50.840;4.346;2023-07-16T09:09:40;12.70;;;6.07;;
25409;SDS011;13339;50.840;4.346;2023-07-16T09:12:06;14.87;;;5.83;;
25409;SDS011;13339;50.840;4.346;2023-07-16T09:14:36;8.97;;;4.97;;
25409;SDS011;13339;50.840;4.346;2023-07-16T09:17:02;11.40;;;5.73;;
25409;SDS011;13339;50.840;4.346;2023-07-16T09:19:27;13.80;;;5.70;;
25409;SDS011;13339;50.840;4.346;2023-07-16T09:21:57;13.27;;;5.83;;
25409;SDS011;13339;50.840;4.346;2023-07-16T09:24:23;12.33;;;5.77;;
25409;SDS011;13339;50.840;4.346;2023-07-16T09:26:49;10.47;;;5.97;;
25409;SDS011;13339;50.840;4.346;2023-07-16T09:29:16;10.00;;;5.43;;
25409;SDS011;13339;50.840;4.346;2023-07-16T09:34:23;15.67;;;6.30;;
25409;SDS011;13339;50.840;4.346;2023-07-16T09:36:52;12.90;;;5.83;;
25409;SDS011;13339;50.840;4.346;2023-07-16T09:39:18;15.30;;;5.87;;
25409;SDS011;13339;50.840;4.346;2023-07-16T09:41:47;10.07;;;5.30;;
25409;SDS011;13339;50.840;4.346;2023-07-16T09:44:14;14.93;;;6.10;;
25409;SDS011;13339;50.840;4.346;2023-07-16T09:46:40;12.17;;;6.40;;
25409;SDS011;13339;50.840;4.346;2023-07-16T09:49:06;14.70;;;6.17;;
25409;SDS011;13339;50.840;4.346;2023-07-16T09:51:33;14.17;;;6.27;;
25409;SDS011;13339;50.840;4.346;2023-07-16T09:54:01;18.70;;;6.27;;
25409;SDS011;13339;50.840;4.346;2023-07-16T09:56:32;13.77;;;6.13;;
25409;SDS011;13339;50.840;4.346;2023-07-16T09:59:01;16.03;;;6.37;;
25409;SDS011;13339;50.840;4.346;2023-07-16T10:01:30;13.00;;;6.63;;
25409;SDS011;13339;50.840;4.346;2023-07-16T10:03:56;13.87;;;6.47;;
25409;SDS011;13339;50.840;4.346;2023-07-16T10:06:22;9.83;;;5.47;;
25409;SDS011;13339;50.840;4.346;2023-07-16T10:08:48;17.23;;;5.60;;
25409;SDS011;13339;50.840;4.346;2023-07-16T10:11:15;10.97;;;5.97;;
25409;SDS011;13339;50.840;4.346;2023-07-16T10:13:42;9.90;;;4.97;;
25409;SDS011;13339;50.840;4.346;2023-07-16T10:16:08;14.70;;;6.10;;
25409;SDS011;13339;50.840;4.346;2023-07-16T10:18:57;9.57;;;5.83;;
25409;SDS011;13339;50.840;4.346;2023-07-16T10:21:25;8.57;;;5.37;;
25409;SDS011;13339;50.840;4.346;2023-07-16T10:23:57;9.13;;;5.43;;
25409;SDS011;13339;50.840;4.346;2023-07-16T10:26:27;10.93;;;5.87;;
25409;SDS011;13339;50.840;4.346;2023-07-16T10:28:54;9.37;;;5.60;;
25409;SDS011;13339;50.840;4.346;2023-07-16T10:31:21;9.20;;;5.53;;
25409;SDS011;13339;50.840;4.346;2023-07-16T10:34:03;9.53;;;5.80;;
25409;SDS011;13339;50.840;4.346;2023-07-16T10:36:30;9.07;;;5.43;;
25409;SDS011;13339;50.840;4.346;2023-07-16T10:39:02;9.97;;;5.70;;
25409;SDS011;13339;50.840;4.346;2023-07-16T10:41:30;9.53;;;4.63;;
25409;SDS011;13339;50.840;4.346;2023-07-16T10:43:57;12.17;;;5.83;;
25409;SDS011;13339;50.840;4.346;2023-07-16T10:46:23;10.73;;;5.70;;
25409;SDS011;13339;50.840;4.346;2023-07-16T10:48:49;12.63;;;5.13;;
25409;SDS011;13339;50.840;4.346;2023-07-16T10:51:15;12.63;;;5.47;;
25409;SDS011;13339;50.840;4.346;2023-07-16T10:53:44;12.13;;;5.70;;
25409;SDS011;13339;50.840;4.346;2023-07-16T10:56:09;15.10;;;5.23;;
25409;SDS011;13339;50.840;4.346;2023-07-16T10:58:38;10.93;;;5.40;;
25409;SDS011;13339;50.840;4.346;2023-07-16T11:01:07;13.17;;;5.87;;
25409;SDS011;13339;50.840;4.346;2023-07-16T11:03:34;11.87;;;5.47;;
25409;SDS011;13339;50.840;4.346;2023-07-16T11:06:05;9.17;;;4.97;;
25409;SDS011;13339;50.840;4.346;2023-07-16T11:08:32;14.67;;;6.07;;
25409;SDS011;13339;50.840;4.346;2023-07-16T11:10:58;12.83;;;5.83;;
25409;SDS011;13339;50.840;4.346;2023-07-16T11:13:27;13.23;;;6.20;;
25409;SDS011;13339;50.840;4.346;2023-07-16T11:15:54;16.30;;;6.63;;
25409;SDS011;13339;50.840;4.346;2023-07-16T11:18:22;11.83;;;5.70;;
25409;SDS011;13339;50.840;4.346;2023-07-16T11:20:52;11.17;;;5.00;;
25409;SDS011;13339;50.840;4.346;2023-07-16T11:23:18;12.03;;;5.60;;
25409;SDS011;13339;50.840;4.346;2023-07-16T11:25:48;9.17;;;5.47;;
25409;SDS011;13339;50.840;4.346;2023-07-16T11:28:14;12.77;;;5.17;;
25409;SDS011;13339;50.840;4.346;2023-07-16T11:30:40;12.13;;;5.13;;
25409;SDS011;13339;50.840;4.346;2023-07-16T11:33:12;9.33;;;5.67;;
25409;SDS011;13339;50.840;4.346;2023-07-16T11:35:38;13.53;;;5.83;;
25409;SDS011;13339;50.840;4.346;2023-07-16T11:38:04;12.13;;;5.70;;
25409;SDS011;13339;50.840;4.346;2023-07-16T11:40:34;12.93;;;5.97;;
25409;SDS011;13339;50.840;4.346;2023-07-16T11:43:10;7.90;;;5.27;;
25409;SDS011;13339;50.840;4.346;2023-07-16T11:45:36;11.17;;;5.53;;
25409;SDS011;13339;50.840;4.346;2023-07-16T11:48:03;12.40;;;5.67;;
25409;SDS011;13339;50.840;4.346;2023-07-16T11:50:29;13.80;;;7.43;;
25409;SDS011;13339;50.840;4.346;2023-07-16T11:52:56;15.97;;;8.53;;
25409;SDS011;13339;50.840;4.346;2023-07-16T11:55:29;24.30;;;13.60;;
25409;SDS011;13339;50.840;4.346;2023-07-16T11:57:54;33.33;;;16.03;;
25409;SDS011;13339;50.840;4.346;2023-07-16T12:00:22;10.30;;;6.33;;
25409;SDS011;13339;50.840;4.346;2023-07-16T12:02:48;12.53;;;6.97;;
25409;SDS011;13339;50.840;4.346;2023-07-16T12:05:19;13.77;;;7.13;;
25409;SDS011;13339;50.840;4.346;2023-07-16T12:07:45;16.40;;;8.70;;
25409;SDS011;13339;50.840;4.346;2023-07-16T12:10:11;18.20;;;9.77;;
25409;SDS011;13339;50.840;4.346;2023-07-16T12:12:37;16.40;;;10.23;;
25409;SDS011;13339;50.840;4.346;2023-07-16T12:15:03;15.60;;;7.93;;
25409;SDS011;13339;50.840;4.346;2023-07-16T12:17:30;7.87;;;4.87;;
25409;SDS011;13339;50.840;4.346;2023-07-16T12:19:55;23.77;;;6.43;;
25409;SDS011;13339;50.840;4.346;2023-07-16T12:22:21;13.60;;;5.43;;
25409;SDS011;13339;50.840;4.346;2023-07-16T12:24:48;13.23;;;5.60;;
25409;SDS011;13339;50.840;4.346;2023-07-16T12:27:14;9.27;;;5.80;;
25409;SDS011;13339;50.840;4.346;2023-07-16T12:29:40;11.63;;;4.87;;
25409;SDS011;13339;50.840;4.346;2023-07-16T12:32:06;7.03;;;4.10;;
25409;SDS011;13339;50.840;4.346;2023-07-16T12:34:33;10.90;;;4.50;;
25409;SDS011;13339;50.840;4.346;2023-07-16T12:36:59;7.80;;;4.37;;
25409;SDS011;13339;50.840;4.346;2023-07-16T12:39:24;9.90;;;4.35;;
25409;SDS011;13339;50.840;4.346;2023-07-16T12:41:50;11.07;;;4.60;;
25409;SDS011;13339;50.840;4.346;2023-07-16T12:44:15;7.03;;;4.00;;
25409;SDS011;13339;50.840;4.346;2023-07-16T12:46:41;7.83;;;3.90;;
25409;SDS011;13339;50.840;4.346;2023-07-16T12:49:07;8.23;;;4.75;;
25409;SDS011;13339;50.840;4.346;2023-07-16T12:51:32;9.65;;;4.10;;
25409;SDS011;13339;50.840;4.346;2023-07-16T12:53:58;6.50;;;4.43;;
25409;SDS011;13339;50.840;4.346;2023-07-16T12:56:25;9.17;;;4.13;;
25409;SDS011;13339;50.840;4.346;2023-07-16T12:58:51;10.13;;;3.93;;
25409;SDS011;13339;50.840;4.346;2023-07-16T13:01:17;7.40;;;4.07;;
25409;SDS011;13339;50.840;4.346;2023-07-16T13:03:42;10.10;;;4.20;;
25409;SDS011;13339;50.840;4.346;2023-07-16T13:06:08;8.20;;;4.35;;
25409;SDS011;13339;50.840;4.346;2023-07-16T13:08:34;5.82;;;4.15;;
25409;SDS011;13339;50.840;4.346;2023-07-16T13:11:00;7.10;;;3.85;;
25409;SDS011;13339;50.840;4.346;2023-07-16T13:13:26;8.70;;;4.05;;
25409;SDS011;13339;50.840;4.346;2023-07-16T13:15:51;7.80;;;3.88;;
25409;SDS011;13339;50.840;4.346;2023-07-16T13:18:17;5.80;;;3.67;;
25409;SDS011;13339;50.840;4.346;2023-07-16T13:20:43;16.00;;;3.90;;
25409;SDS011;13339;50.840;4.346;2023-07-16T13:23:09;8.77;;;3.70;;
25409;SDS011;13339;50.840;4.346;2023-07-16T13:25:35;7.82;;;3.72;;
25409;SDS011;13339;50.840;4.346;2023-07-16T13:28:02;7.03;;;3.53;;
25409;SDS011;13339;50.840;4.346;2023-07-16T13:30:28;5.90;;;3.77;;
25409;SDS011;13339;50.840;4.346;2023-07-16T13:32:53;4.63;;;2.70;;
25409;SDS011;13339;50.840;4.346;2023-07-16T13:35:21;8.40;;;3.30;;
25409;SDS011;13339;50.840;4.346;2023-07-16T13:37:50;6.23;;;3.07;;
25409;SDS011;13339;50.840;4.346;2023-07-16T13:40:16;4.90;;;2.10;;
25409;SDS011;13339;50.840;4.346;2023-07-16T13:42:42;4.80;;;2.17;;
25409;SDS011;13339;50.840;4.346;2023-07-16T13:45:08;8.13;;;2.47;;
25409;SDS011;13339;50.840;4.346;2023-07-16T13:47:34;3.60;;;2.23;;
25409;SDS011;13339;50.840;4.346;2023-07-16T13:49:59;3.40;;;2.30;;
25409;SDS011;13339;50.840;4.346;2023-07-16T13:52:25;5.27;;;2.80;;
25409;SDS011;13339;50.840;4.346;2023-07-16T13:54:50;2.93;;;2.40;;
25409;SDS011;13339;50.840;4.346;2023-07-16T13:57:16;5.10;;;3.03;;
25409;SDS011;13339;50.840;4.346;2023-07-16T13:59:42;4.93;;;2.80;;
25409;SDS011;13339;50.840;4.346;2023-07-16T14:02:07;8.07;;;3.37;;
25409;SDS011;13339;50.840;4.346;2023-07-16T14:04:33;5.33;;;3.10;;
25409;SDS011;13339;50.840;4.346;2023-07-16T14:06:59;7.67;;;3.37;;
25409;SDS011;13339;50.840;4.346;2023-07-16T14:09:25;5.97;;;3.47;;
25409;SDS011;13339;50.840;4.346;2023-07-16T14:11:50;6.97;;;3.37;;
25409;SDS011;13339;50.840;4.346;2023-07-16T14:14:17;4.37;;;3.07;;
25409;SDS011;13339;50.840;4.346;2023-07-16T14:16:43;8.87;;;3.93;;
25409;SDS011;13339;50.840;4.346;2023-07-16T14:19:08;5.28;;;3.60;;
25409;SDS011;13339;50.840;4.346;2023-07-16T14:21:34;9.15;;;4.35;;
25409;SDS011;13339;50.840;4.346;2023-07-16T14:24:00;8.00;;;3.95;;
25409;SDS011;13339;50.840;4.346;2023-07-16T14:26:26;9.63;;;3.63;;
25409;SDS011;13339;50.840;4.346;2023-07-16T14:28:51;6.93;;;4.68;;
25409;SDS011;13339;50.840;4.346;2023-07-16T14:31:17;6.68;;;3.95;;
25409;SDS011;13339;50.840;4.346;2023-07-16T14:33:43;6.32;;;3.33;;
25409;SDS011;13339;50.840;4.346;2023-07-16T14:36:09;5.82;;;2.83;;
25409;SDS011;13339;50.840;4.346;2023-07-16T14:38:34;8.18;;;3.45;;
25409;SDS011;13339;50.840;4.346;2023-07-16T14:41:00;10.35;;;3.95;;